Hanalei, HI

10:06 PM HST on November 25, 2014 (GMT -1000)
Wheeler Army Air Field | Change Station
CLOSE
Current Station
Airport
Location: Wheeler AAF,
Elevation: 837 ft
Nearby Weather Stations
Active Advisory: High Surf Advisory

Elev 837 ft 21.48 °N, 158.04 °W | Updated 8 minutes ago

Scattered Clouds
Scattered Clouds
68 °F
Feels Like 68 °F
N
6
Wind Variable Wind from North

Today
High -- | Low -- °F
--% Chance of Precip.
Yesterday
High -- | Low -- °F
Precip. -- in
6:56 AM 5:53 PM
Waxing Crescent, 17% visible
Pressure 30.06 in
Visibility 10.0 miles
Clouds Scattered Clouds 4300 ft
Dew Point 59 °F
Humidity 72%
Rainfall 0.00 in
Snow Depth Not available.
UV 0 out of 12
Pollen Not available.
Air Quality Not available.
Flu Activity Not available.
METAR PHHI 260758Z AUTO 01005KT 10SM SCT043 20/15 A3008 RMK AO2 SLP178 T02030150 $

More Conditions Fewer Conditions

Pressure 30.06 in
Visibility 10.0 miles
Clouds Scattered Clouds 4300 ft
Dew Point 59 °F
Humidity 72%
Rainfall 0.00 in
Snow Depth Not available.
UV 0 out of 12
Pollen Not available.
Air Quality Not available.
Flu Activity Not available.
METAR PHHI 260758Z AUTO 01005KT 10SM SCT043 20/15 A3008 RMK AO2 SLP178 T02030150 $

More Conditions Fewer Conditions

10-Day Weather Forecast

Almanac

Astronomy

Nov. 25, 2014 Rise Set
Actual Time
Civil Twilight
Nautical Twilight
Astronomical Twilight
Moon
Length of Visible Light
Length of Day
Tomorrow will be .
, % of the Moon is Illuminated

Today's Extremes

State Highs State Lows

Community

WunderPhotos

Upload Photos

1,773,694 photos uploaded!

WunderBlogs® & News

Nearby

Air Quality

  Air Quality AQ Index Pollutant
Not available.

Snow Depth

Station Depth Elevation

Earthquake Activity

City Distance Mag. Time & Date
Minimum magnitude displayed is 2.5.

Coastal Water Temperatures

Place Temperature

Nearby Weather Stations